Mirabel, Canada
Current Conditions -  °F | °C
As of 3:00 PM on Thursday 30 Oct 2014 (Local Time) from CYMX Reporting Station
Rain Showers Rain Showers  
Wind Chill: 40°   Ceiling: 3700
Heat Index: 45°   Visibility: 45mi
Dew Point: 32°   Wind: 9mph
Humidity: 61%   Direction: 280°W
Pressure: 29.97"   Gusts: 17mph
Location:  45.67°N, 73.98°W
Report Text: CYMX 301900Z 28008G15KT 230V310 45SM -SHRA BKN037 BKN210 07/00 A2997 RMK SC5CI2 SLP150
Loading
Personal Weather Stations






























Interactive Weather Map
Tropical Storm Tracking
New forecast layout! Learn more

10-Day Weather Forecast

Advertisements
Track Severe Weather on mobile